createdAt,value
2023-03-26T00:02:34.167Z,9.55
2023-03-26T00:05:19.901Z,9.49
2023-03-26T00:08:08.553Z,9.45
2023-03-26T00:10:53.545Z,9.33
2023-03-26T00:13:39.219Z,9.24
2023-03-26T00:16:27.698Z,9.21
2023-03-26T00:19:13.708Z,9.14
2023-03-26T00:21:58.574Z,9.11
2023-03-26T00:24:45.852Z,9.06
2023-03-26T00:27:30.635Z,8.97
2023-03-26T00:30:16.580Z,8.88
2023-03-26T00:33:02.806Z,8.86
2023-03-26T00:35:54.052Z,8.78
2023-03-26T00:38:39.451Z,8.80
2023-03-26T00:41:26.674Z,8.72
2023-03-26T00:44:13.094Z,8.63
2023-03-26T00:46:58.198Z,8.60
2023-03-26T00:49:46.586Z,8.69
2023-03-26T00:52:31.763Z,8.62
2023-03-26T00:55:16.798Z,8.57
2023-03-26T00:58:01.668Z,8.49
2023-03-26T01:00:57.202Z,8.42
2023-03-26T01:03:56.775Z,8.34
2023-03-26T01:06:46.711Z,8.26
2023-03-26T01:09:42.587Z,8.18
2023-03-26T01:12:31.984Z,8.13
2023-03-26T01:15:17.056Z,8.16
2023-03-26T01:18:04.768Z,8.07
2023-03-26T01:20:51.061Z,8.15
2023-03-26T01:23:50.985Z,8.17
2023-03-26T01:26:47.605Z,8.16
2023-03-26T01:29:54.421Z,8.15
2023-03-26T01:32:53.353Z,8.18
2023-03-26T01:35:48.341Z,8.19
2023-03-26T01:38:54.814Z,8.18
2023-03-26T01:41:46.616Z,8.41
2023-03-26T01:44:57.885Z,8.31
2023-03-26T01:47:44.037Z,8.54
2023-03-26T01:50:28.988Z,8.63
2023-03-26T01:53:14.576Z,8.64
2023-03-26T01:56:26.377Z,8.58
2023-03-26T01:59:30.489Z,8.59
2023-03-26T02:02:30.545Z,8.61
2023-03-26T02:05:23.918Z,8.60
2023-03-26T02:08:20.976Z,8.66
2023-03-26T02:11:11.750Z,8.74
2023-03-26T02:13:58.138Z,8.80
2023-03-26T02:16:46.649Z,8.81
2023-03-26T02:19:31.845Z,8.83
2023-03-26T02:22:17.402Z,8.86
2023-03-26T02:25:02.097Z,8.79
2023-03-26T02:27:49.174Z,8.88
2023-03-26T02:30:33.847Z,8.88
2023-03-26T02:33:19.039Z,8.87
2023-03-26T02:36:04.425Z,8.89
2023-03-26T02:38:50.856Z,8.97
2023-03-26T02:41:35.761Z,8.93
2023-03-26T02:44:20.575Z,8.86
2023-03-26T02:47:06.049Z,8.87
2023-03-26T02:49:51.196Z,8.71
2023-03-26T02:52:36.390Z,8.79
2023-03-26T02:55:21.378Z,8.76
2023-03-26T02:58:06.178Z,8.77
2023-03-26T03:00:55.078Z,8.75
2023-03-26T03:03:40.529Z,8.70
2023-03-26T03:06:26.350Z,8.74
2023-03-26T03:09:11.966Z,8.68
2023-03-26T03:11:57.085Z,8.67
2023-03-26T03:14:42.225Z,8.66
2023-03-26T03:17:26.895Z,8.63
2023-03-26T03:20:13.288Z,8.66
2023-03-26T03:22:58.545Z,8.66
2023-03-26T03:25:43.409Z,8.65
2023-03-26T03:28:28.186Z,8.63
2023-03-26T03:31:13.405Z,8.64
2023-03-26T03:33:58.732Z,8.63
2023-03-26T03:36:48.219Z,8.65
2023-03-26T03:39:33.166Z,8.70
2023-03-26T03:42:18.348Z,8.68
2023-03-26T03:45:06.240Z,8.68
2023-03-26T03:47:51.336Z,8.63
2023-03-26T03:50:36.212Z,8.56
2023-03-26T03:53:22.088Z,8.56
2023-03-26T03:56:09.995Z,8.45
2023-03-26T03:58:55.432Z,8.47
2023-03-26T04:01:43.026Z,8.40
2023-03-26T04:04:27.800Z,8.32
2023-03-26T04:07:13.871Z,8.25
2023-03-26T04:10:01.831Z,8.22
2023-03-26T04:12:46.734Z,8.19
2023-03-26T04:15:31.498Z,8.21
2023-03-26T04:18:16.463Z,8.17
2023-03-26T04:21:03.165Z,8.19
2023-03-26T04:23:47.978Z,8.10
2023-03-26T04:26:32.894Z,8.13
2023-03-26T04:29:21.877Z,8.18
2023-03-26T04:32:12.549Z,8.20
2023-03-26T04:35:00.459Z,8.20
2023-03-26T04:37:46.070Z,8.27
2023-03-26T04:40:34.647Z,8.22
2023-03-26T04:43:19.612Z,8.22
2023-03-26T04:46:04.686Z,8.25
2023-03-26T04:48:51.352Z,8.25
2023-03-26T04:51:38.847Z,8.22
2023-03-26T04:54:24.455Z,8.13
2023-03-26T04:57:23.370Z,8.12
2023-03-26T05:00:16.423Z,8.11
2023-03-26T05:03:01.545Z,8.14
2023-03-26T05:05:46.695Z,8.09
2023-03-26T05:08:31.603Z,8.06
2023-03-26T05:11:16.723Z,8.11
2023-03-26T05:14:01.478Z,8.16
2023-03-26T05:16:48.778Z,8.18
2023-03-26T05:19:33.662Z,8.11
2023-03-26T05:22:18.971Z,8.21
2023-03-26T05:25:04.872Z,8.11
2023-03-26T05:27:49.622Z,8.09
2023-03-26T05:30:34.445Z,7.88
2023-03-26T05:33:20.992Z,7.78
2023-03-26T05:36:09.634Z,7.87
2023-03-26T05:38:56.364Z,7.97
2023-03-26T05:41:41.350Z,7.65
2023-03-26T05:44:26.321Z,7.54
2023-03-26T05:47:11.412Z,7.56
2023-03-26T05:49:56.301Z,7.72
2023-03-26T05:52:41.604Z,7.62
2023-03-26T05:55:27.612Z,7.79
2023-03-26T05:58:13.645Z,7.79
2023-03-26T06:01:05.402Z,7.62
2023-03-26T06:03:51.408Z,7.53
2023-03-26T06:06:36.485Z,7.54
2023-03-26T06:09:21.716Z,7.53
2023-03-26T06:12:08.240Z,7.75
2023-03-26T06:14:53.086Z,7.74
2023-03-26T06:17:38.034Z,7.63
2023-03-26T06:20:23.097Z,7.71
2023-03-26T06:23:08.347Z,7.79
2023-03-26T06:25:53.086Z,7.59
2023-03-26T06:28:38.208Z,7.48
2023-03-26T06:31:22.916Z,7.44
2023-03-26T06:34:08.111Z,7.37
2023-03-26T06:36:53.043Z,7.33
2023-03-26T06:39:38.129Z,7.37
2023-03-26T06:43:07.052Z,7.37
2023-03-26T06:45:29.377Z,7.61
2023-03-26T06:48:14.188Z,7.78
2023-03-26T06:50:59.102Z,7.64
2023-03-26T06:53:44.032Z,7.59
2023-03-26T06:56:28.952Z,7.53
2023-03-26T06:59:13.940Z,7.63
2023-03-26T07:01:58.835Z,7.68
2023-03-26T07:04:43.862Z,7.70
2023-03-26T07:07:28.739Z,7.75
2023-03-26T07:10:14.588Z,7.75
2023-03-26T07:12:59.484Z,7.77
2023-03-26T07:15:44.610Z,7.48
2023-03-26T07:18:29.374Z,7.60
2023-03-26T07:21:15.287Z,7.59
2023-03-26T07:24:00.183Z,7.29
2023-03-26T07:26:44.850Z,7.27
2023-03-26T07:29:39.454Z,7.37
2023-03-26T07:32:30.441Z,7.51
2023-03-26T07:35:23.791Z,7.46
2023-03-26T07:38:46.417Z,7.63
2023-03-26T07:41:46.616Z,7.40
2023-03-26T07:44:48.501Z,7.39
2023-03-26T07:47:34.734Z,7.60
2023-03-26T07:50:22.757Z,7.61
2023-03-26T07:53:07.743Z,7.46
2023-03-26T07:56:10.989Z,7.56
2023-03-26T07:59:11.476Z,7.44
2023-03-26T08:02:15.425Z,7.52
2023-03-26T08:05:10.345Z,7.50
2023-03-26T08:08:25.467Z,7.65
2023-03-26T08:11:24.366Z,7.32
2023-03-26T08:14:22.562Z,7.34
2023-03-26T08:17:23.561Z,7.42
2023-03-26T08:20:34.170Z,7.52
2023-03-26T08:23:33.501Z,7.32
2023-03-26T08:26:45.315Z,7.52
2023-03-26T08:29:49.795Z,7.40
2023-03-26T08:32:34.996Z,7.55
2023-03-26T08:35:19.957Z,7.41
2023-03-26T08:38:05.461Z,7.43
2023-03-26T08:41:09.387Z,7.31
2023-03-26T08:44:47.463Z,7.41
2023-03-26T08:48:09.818Z,7.39
2023-03-26T08:51:03.969Z,7.31
2023-03-26T08:54:13.624Z,7.40
2023-03-26T08:57:20.751Z,7.30
2023-03-26T09:00:30.576Z,7.45
2023-03-26T09:03:37.344Z,7.20
2023-03-26T09:06:43.903Z,7.37
2023-03-26T09:10:02.892Z,7.30
2023-03-26T09:13:14.641Z,7.31
2023-03-26T09:16:42.753Z,7.35
2023-03-26T09:20:02.636Z,7.32
2023-03-26T09:23:06.582Z,7.18
2023-03-26T09:26:03.384Z,7.28
2023-03-26T09:29:24.748Z,7.30
2023-03-26T09:32:31.884Z,7.34
2023-03-26T09:35:38.371Z,7.46
2023-03-26T09:38:45.960Z,7.40
2023-03-26T09:41:59.334Z,7.44
2023-03-26T09:45:22.436Z,7.47
2023-03-26T09:48:30.733Z,7.78
2023-03-26T09:51:49.777Z,7.83
2023-03-26T09:55:08.134Z,7.89
2023-03-26T09:58:14.356Z,8.08
2023-03-26T10:01:12.394Z,8.53
2023-03-26T10:04:10.406Z,8.97
2023-03-26T10:07:29.984Z,9.20
2023-03-26T10:10:31.497Z,8.96
2023-03-26T10:13:30.532Z,8.79
2023-03-26T10:16:51.263Z,8.29
2023-03-26T10:19:50.138Z,8.59
2023-03-26T10:22:47.372Z,8.20
2023-03-26T10:25:56.180Z,8.05
2023-03-26T10:29:08.247Z,8.35
2023-03-26T10:32:05.217Z,8.20
2023-03-26T10:35:06.720Z,8.48
2023-03-26T10:38:03.606Z,8.21
2023-03-26T10:40:59.621Z,8.37
2023-03-26T10:44:08.698Z,8.50
2023-03-26T10:47:18.483Z,8.44
2023-03-26T10:50:23.772Z,8.60
2023-03-26T10:53:26.813Z,8.62
2023-03-26T10:56:23.922Z,8.98
2023-03-26T10:59:14.197Z,8.89
2023-03-26T11:02:20.957Z,9.01
2023-03-26T11:05:39.862Z,8.92
2023-03-26T11:08:46.746Z,9.09
2023-03-26T11:11:41.865Z,9.08
2023-03-26T11:14:48.028Z,8.82
2023-03-26T11:17:56.971Z,8.96
2023-03-26T11:20:50.853Z,8.96
2023-03-26T11:23:39.547Z,8.98
2023-03-26T11:26:49.211Z,9.11
2023-03-26T11:29:56.540Z,8.65
2023-03-26T11:32:45.871Z,9.01
2023-03-26T11:35:40.265Z,8.95
2023-03-26T11:38:29.037Z,8.88
2023-03-26T11:41:22.519Z,8.79
2023-03-26T11:44:29.171Z,8.90
2023-03-26T11:47:20.539Z,9.26
2023-03-26T11:50:10.599Z,8.94
2023-03-26T11:53:12.300Z,8.77
2023-03-26T11:56:20.003Z,8.64
2023-03-26T11:59:14.638Z,8.22
2023-03-26T12:02:05.922Z,8.05
2023-03-26T12:04:55.114Z,8.14
2023-03-26T12:07:52.225Z,8.48
2023-03-26T12:10:39.180Z,8.68
2023-03-26T12:13:28.714Z,8.45
2023-03-26T12:16:17.603Z,8.83
2023-03-26T12:19:18.520Z,9.17
2023-03-26T12:22:03.774Z,9.20
2023-03-26T12:25:01.158Z,9.42
2023-03-26T12:27:52.741Z,9.52
2023-03-26T12:30:39.506Z,9.68
2023-03-26T12:33:27.908Z,9.34
2023-03-26T12:36:20.553Z,9.48
2023-03-26T12:40:09.731Z,9.28
2023-03-26T12:44:48.305Z,9.58
2023-03-26T12:45:42.906Z,9.80
2023-03-26T12:48:29.328Z,9.76
2023-03-26T12:51:30.012Z,9.62
2023-03-26T12:54:23.762Z,9.54
2023-03-26T12:57:24.424Z,9.84
2023-03-26T13:00:25.451Z,9.77
2023-03-26T13:03:30.788Z,9.68
2023-03-26T13:06:27.579Z,9.54
2023-03-26T13:09:34.012Z,9.53
2023-03-26T13:12:47.080Z,9.63
2023-03-26T13:15:36.838Z,9.70
2023-03-26T13:18:47.953Z,9.82
2023-03-26T13:22:02.566Z,9.67
2023-03-26T13:24:55.712Z,9.50
2023-03-26T13:28:01.888Z,9.45
2023-03-26T13:31:24.369Z,9.49
2023-03-26T13:34:29.846Z,9.48
2023-03-26T13:37:32.806Z,9.61
2023-03-26T13:40:33.544Z,9.63
2023-03-26T13:43:36.644Z,9.83
2023-03-26T13:46:44.921Z,10.05
2023-03-26T13:49:37.340Z,10.30
2023-03-26T13:52:40.124Z,10.01
2023-03-26T13:55:40.571Z,9.93
2023-03-26T13:58:41.628Z,9.90
2023-03-26T14:01:43.227Z,9.76
2023-03-26T14:04:40.357Z,9.83
2023-03-26T14:07:43.006Z,9.67
2023-03-26T14:10:33.966Z,9.66
2023-03-26T14:13:31.059Z,9.79
2023-03-26T14:16:26.447Z,9.39
2023-03-26T14:19:47.088Z,9.22
2023-03-26T14:22:55.327Z,9.05
2023-03-26T14:25:59.214Z,9.39
2023-03-26T14:29:02.777Z,9.39
2023-03-26T14:32:15.441Z,9.76
2023-03-26T14:35:31.416Z,9.90
2023-03-26T14:38:54.169Z,10.02
2023-03-26T14:41:51.729Z,9.95
2023-03-26T14:44:56.203Z,10.10
2023-03-26T14:48:05.058Z,9.91
2023-03-26T14:51:22.908Z,9.81
2023-03-26T14:54:16.150Z,9.66
2023-03-26T14:57:13.604Z,9.55
2023-03-26T15:00:34.635Z,9.59
2023-03-26T15:03:43.464Z,9.45
2023-03-26T15:06:50.106Z,9.74
2023-03-26T15:09:53.250Z,10.15
2023-03-26T15:13:06.090Z,10.09
2023-03-26T15:16:34.428Z,9.42
2023-03-26T15:19:53.345Z,9.28
2023-03-26T15:22:53.939Z,9.68
2023-03-26T15:26:21.822Z,9.90
2023-03-26T15:29:23.061Z,9.67
2023-03-26T15:32:31.695Z,9.46
2023-03-26T15:35:50.017Z,9.35
2023-03-26T15:39:14.683Z,9.13
2023-03-26T15:42:09.257Z,9.13
2023-03-26T15:45:06.518Z,9.33
2023-03-26T15:48:11.584Z,9.29
2023-03-26T15:51:15.599Z,9.27
2023-03-26T15:54:19.253Z,9.15
2023-03-26T15:57:25.775Z,9.36
2023-03-26T16:00:22.547Z,9.23
2023-03-26T16:03:11.666Z,9.23
2023-03-26T16:06:27.995Z,9.14
2023-03-26T16:09:33.823Z,9.07
2023-03-26T16:12:32.808Z,8.90
2023-03-26T16:15:32.296Z,8.80
2023-03-26T16:18:30.123Z,8.69
2023-03-26T16:21:36.987Z,8.71
2023-03-26T16:24:28.975Z,8.50
2023-03-26T16:27:13.642Z,8.56
2023-03-26T16:30:06.876Z,8.59
2023-03-26T16:32:55.942Z,8.44
2023-03-26T16:36:02.551Z,8.44
2023-03-26T16:38:55.085Z,8.42
2023-03-26T16:41:40.161Z,8.33
2023-03-26T16:44:37.916Z,8.38
2023-03-26T16:47:38.551Z,8.37
2023-03-26T16:50:46.045Z,8.34
2023-03-26T16:53:58.156Z,8.33
2023-03-26T16:56:50.717Z,8.37
2023-03-26T17:00:04.946Z,8.19
2023-03-26T17:03:12.826Z,8.25
2023-03-26T17:06:19.686Z,8.16
2023-03-26T17:09:41.435Z,8.15
2023-03-26T17:13:08.217Z,8.11
2023-03-26T17:16:23.087Z,8.13
2023-03-26T17:19:33.073Z,8.01
2023-03-26T17:22:34.533Z,8.10
2023-03-26T17:25:36.144Z,8.06
2023-03-26T17:28:32.116Z,7.99
2023-03-26T17:31:40.974Z,8.03
2023-03-26T17:34:38.174Z,7.93
2023-03-26T17:37:26.322Z,7.92
2023-03-26T17:40:42.428Z,7.88
2023-03-26T17:43:42.943Z,7.80
2023-03-26T17:46:37.903Z,7.77
2023-03-26T17:49:30.480Z,7.76
2023-03-26T17:52:21.250Z,7.62
2023-03-26T17:55:10.265Z,7.61
2023-03-26T17:58:06.625Z,7.70
2023-03-26T18:01:01.578Z,7.73
2023-03-26T18:03:54.302Z,7.71
2023-03-26T18:07:11.822Z,7.75
2023-03-26T18:10:32.917Z,7.64
2023-03-26T18:14:00.114Z,7.55
2023-03-26T18:16:52.356Z,7.54
2023-03-26T18:19:52.519Z,7.41
2023-03-26T18:22:38.305Z,7.43
2023-03-26T18:25:33.639Z,7.52
2023-03-26T18:28:18.557Z,7.60
2023-03-26T18:31:14.307Z,7.39
2023-03-26T18:34:12.528Z,7.37
2023-03-26T18:37:31.619Z,7.31
2023-03-26T18:40:20.076Z,7.34
2023-03-26T18:43:05.794Z,7.15
2023-03-26T18:45:53.685Z,7.18
2023-03-26T18:48:42.182Z,7.27
2023-03-26T18:51:27.531Z,7.25
2023-03-26T18:54:18.343Z,7.01
2023-03-26T18:57:21.776Z,7.20
2023-03-26T19:00:22.934Z,7.21
2023-03-26T19:03:08.381Z,7.07
2023-03-26T19:05:59.191Z,7.20
2023-03-26T19:08:45.394Z,7.20
2023-03-26T19:11:32.461Z,7.11
2023-03-26T19:14:20.067Z,7.19
2023-03-26T19:17:06.669Z,7.20
2023-03-26T19:19:52.179Z,7.24
2023-03-26T19:22:44.776Z,7.22
2023-03-26T19:25:38.728Z,7.25
2023-03-26T19:28:49.173Z,7.29
2023-03-26T19:31:38.632Z,7.03
2023-03-26T19:34:41.922Z,7.11
2023-03-26T19:37:32.214Z,7.20
2023-03-26T19:40:22.258Z,7.03
2023-03-26T19:43:11.790Z,7.01
2023-03-26T19:45:59.624Z,6.91
2023-03-26T19:48:48.979Z,6.83
2023-03-26T19:51:38.527Z,6.72
2023-03-26T19:54:34.454Z,6.84
2023-03-26T19:57:19.914Z,6.75
2023-03-26T20:00:13.514Z,6.79
2023-03-26T20:02:59.008Z,6.86
2023-03-26T20:05:46.269Z,6.72
2023-03-26T20:08:31.296Z,6.70
2023-03-26T20:11:20.922Z,6.69
2023-03-26T20:14:15.705Z,6.68
2023-03-26T20:17:00.609Z,6.66
2023-03-26T20:19:46.795Z,6.71
2023-03-26T20:22:32.579Z,6.67
2023-03-26T20:25:20.580Z,6.58
2023-03-26T20:28:07.803Z,6.72
2023-03-26T20:30:54.182Z,6.69
2023-03-26T20:33:39.634Z,6.70
2023-03-26T20:36:33.346Z,6.73
2023-03-26T20:39:19.273Z,6.60
2023-03-26T20:42:07.044Z,6.66
2023-03-26T20:44:52.142Z,6.76
2023-03-26T20:47:38.511Z,6.72
2023-03-26T20:50:27.268Z,6.62
2023-03-26T20:53:14.828Z,6.51
2023-03-26T20:55:59.997Z,6.50
2023-03-26T20:58:50.570Z,6.54
2023-03-26T21:01:40.537Z,6.49
2023-03-26T21:04:26.239Z,6.43
2023-03-26T21:07:18.322Z,6.41
2023-03-26T21:10:06.575Z,6.29
2023-03-26T21:13:23.658Z,6.33
2023-03-26T21:16:09.987Z,6.27
2023-03-26T21:18:55.552Z,6.34
2023-03-26T21:21:48.534Z,6.35
2023-03-26T21:24:50.504Z,6.26
2023-03-26T21:27:51.525Z,6.33
2023-03-26T21:30:38.911Z,6.27
2023-03-26T21:33:24.074Z,6.05
2023-03-26T21:36:13.158Z,6.19
2023-03-26T21:39:03.092Z,6.21
2023-03-26T21:42:05.436Z,6.18
2023-03-26T21:44:52.252Z,6.19
2023-03-26T21:47:37.726Z,6.27
2023-03-26T21:50:23.370Z,6.18
2023-03-26T21:53:13.059Z,6.13
2023-03-26T21:56:07.447Z,5.95
2023-03-26T21:59:19.255Z,5.97
2023-03-26T22:02:08.358Z,6.00
2023-03-26T22:05:00.032Z,5.91
2023-03-26T22:07:58.531Z,5.97
2023-03-26T22:10:43.643Z,5.82
2023-03-26T22:13:30.698Z,5.83
2023-03-26T22:16:18.709Z,5.88
2023-03-26T22:19:03.481Z,5.94
2023-03-26T22:21:48.241Z,5.92
2023-03-26T22:24:34.215Z,5.73
2023-03-26T22:27:19.156Z,5.59
2023-03-26T22:30:05.742Z,5.64
2023-03-26T22:32:52.509Z,5.60
2023-03-26T22:35:40.955Z,5.61
2023-03-26T22:38:26.006Z,5.65
2023-03-26T22:41:15.995Z,5.60
2023-03-26T22:44:16.918Z,5.49
2023-03-26T22:47:04.606Z,5.48
2023-03-26T22:49:49.396Z,5.40
2023-03-26T22:52:36.447Z,5.39
2023-03-26T22:55:28.956Z,5.41
2023-03-26T22:58:14.304Z,5.24
2023-03-26T23:01:10.741Z,5.32
2023-03-26T23:03:56.173Z,5.27
2023-03-26T23:06:40.924Z,5.23
2023-03-26T23:09:29.303Z,5.18
2023-03-26T23:12:18.020Z,5.07
2023-03-26T23:15:05.159Z,4.86
2023-03-26T23:17:54.905Z,4.81
2023-03-26T23:20:42.659Z,4.84
2023-03-26T23:23:30.790Z,4.81
2023-03-26T23:26:16.238Z,4.66
2023-03-26T23:29:02.367Z,4.70
2023-03-26T23:31:47.534Z,4.57
2023-03-26T23:34:33.941Z,4.45
2023-03-26T23:37:22.827Z,4.52
2023-03-26T23:40:10.265Z,4.55
2023-03-26T23:42:55.651Z,4.45
2023-03-26T23:45:42.688Z,4.34
2023-03-26T23:48:29.507Z,4.31
2023-03-26T23:51:16.611Z,4.38
2023-03-26T23:54:02.265Z,4.13
2023-03-26T23:56:48.881Z,4.20
2023-03-26T23:59:35.388Z,4.16
